Time;durP1;ratioP1;P1;durP2;ratioP2;P2;SDS_P1;SDS_P2;PMS_P1;PMS_P2;Temp;Humidity;BMP_temperature;BMP_pressure;BME280_temperature;BME280_humidity;BME280_pressure;Samples;Min_cycle;Max_cycle;Signal;HPM_P1;HPM_P2
2022/05/01 00:01:32;;;;;;;10.97;9.83;;;;;;;;;;5048050;28;20443;-74
2022/05/01 00:03:58;;;;;;;11.63;10.60;;;;;;;;;;5049908;28;20434;-75
2022/05/01 00:06:24;;;;;;;11.27;10.20;;;;;;;;;;5046313;28;20458;-75
2022/05/01 00:08:50;;;;;;;13.87;9.70;;;;;;;;;;5048759;28;20441;-76
2022/05/01 00:11:16;;;;;;;13.30;11.27;;;;;;;;;;5047884;28;20438;-75
2022/05/01 00:13:43;;;;;;;11.93;9.83;;;;;;;;;;5051166;28;20572;-76
2022/05/01 00:16:09;;;;;;;11.50;10.50;;;;;;;;;;5050468;28;20879;-74
2022/05/01 00:18:36;;;;;;;11.33;9.93;;;;;;;;;;5051610;28;20434;-74
2022/05/01 00:21:02;;;;;;;10.57;9.63;;;;;;;;;;5044959;28;20523;-75
2022/05/01 00:23:28;;;;;;;10.27;9.37;;;;;;;;;;5048968;28;21653;-75
2022/05/01 00:25:54;;;;;;;12.00;10.80;;;;;;;;;;5046977;28;21056;-74
2022/05/01 00:28:20;;;;;;;11.53;10.43;;;;;;;;;;5049852;28;20442;-74
2022/05/01 00:30:46;;;;;;;9.20;8.50;;;;;;;;;;5049466;28;20458;-74
2022/05/01 00:36:26;;;;;;;12.07;10.77;;;;;;;;;;5035053;28;20442;-76
2022/05/01 00:39:05;;;;;;;12.10;10.80;;;;;;;;;;5047995;28;20885;-77
2022/05/01 00:41:32;;;;;;;11.97;10.10;;;;;;;;;;5046239;28;20439;-76
2022/05/01 00:43:58;;;;;;;11.37;10.27;;;;;;;;;;5047375;28;20431;-76
2022/05/01 00:46:24;;;;;;;10.93;9.80;;;;;;;;;;5050000;28;20450;-74
2022/05/01 00:48:51;;;;;;;11.10;10.00;;;;;;;;;;5050843;28;20430;-74
2022/05/01 00:51:17;;;;;;;12.23;11.03;;;;;;;;;;5048813;28;21022;-74
2022/05/01 00:53:43;;;;;;;11.40;10.40;;;;;;;;;;5051299;28;20410;-76
2022/05/01 00:56:09;;;;;;;11.20;10.10;;;;;;;;;;5047909;28;20437;-75
2022/05/01 00:58:35;;;;;;;12.43;11.13;;;;;;;;;;5049191;28;20439;-75
2022/05/01 01:01:01;;;;;;;12.80;10.30;;;;;;;;;;5047789;28;20484;-74
2022/05/01 01:03:28;;;;;;;11.93;10.80;;;;;;;;;;5047514;28;20426;-74
2022/05/01 01:05:54;;;;;;;11.67;10.47;;;;;;;;;;5048623;28;20490;-74
2022/05/01 01:08:21;;;;;;;13.00;11.70;;;;;;;;;;5048416;28;20426;-74
2022/05/01 01:10:47;;;;;;;12.03;10.13;;;;;;;;;;5048273;28;20434;-75
2022/05/01 01:13:13;;;;;;;11.77;10.27;;;;;;;;;;5047145;28;20998;-74
2022/05/01 01:15:39;;;;;;;13.53;10.30;;;;;;;;;;5047656;28;20504;-74
2022/05/01 01:18:05;;;;;;;14.27;10.70;;;;;;;;;;5046062;28;20426;-74
2022/05/01 01:20:31;;;;;;;12.30;11.17;;;;;;;;;;5050151;28;20949;-74
2022/05/01 01:22:58;;;;;;;14.50;10.40;;;;;;;;;;5047536;28;20445;-75
2022/05/01 01:25:31;;;;;;;11.70;10.53;;;;;;;;;;5047435;28;20497;-75
2022/05/01 01:28:02;;;;;;;14.63;11.13;;;;;;;;;;5049115;28;20513;-76
2022/05/01 01:33:15;;;;;;;13.60;11.60;;;;;;;;;;5048233;28;20480;-75
2022/05/01 01:35:41;;;;;;;11.87;10.70;;;;;;;;;;5048290;28;20879;-74
2022/05/01 01:38:08;;;;;;;13.10;10.67;;;;;;;;;;5045751;28;20519;-75
2022/05/01 01:40:49;;;;;;;12.63;11.43;;;;;;;;;;5048072;28;20430;-75
2022/05/01 01:43:19;;;;;;;12.30;11.10;;;;;;;;;;5047558;28;20875;-75
2022/05/01 01:45:46;;;;;;;13.23;11.50;;;;;;;;;;5048814;28;20478;-76
2022/05/01 01:48:13;;;;;;;12.17;10.87;;;;;;;;;;5047765;28;20464;-74
2022/05/01 01:50:39;;;;;;;11.17;10.10;;;;;;;;;;5046155;28;21489;-74
2022/05/01 01:53:06;;;;;;;12.07;10.83;;;;;;;;;;5048491;28;20505;-74
2022/05/01 01:55:32;;;;;;;13.37;11.27;;;;;;;;;;5046921;28;20430;-74
2022/05/01 01:57:58;;;;;;;14.23;11.10;;;;;;;;;;5045459;28;20496;-74
2022/05/01 02:00:24;;;;;;;11.97;10.77;;;;;;;;;;5046271;28;20441;-74
2022/05/01 02:02:56;;;;;;;14.03;12.57;;;;;;;;;;5048243;28;20458;-75
2022/05/01 02:05:22;;;;;;;14.90;12.80;;;;;;;;;;5047680;28;20565;-74
2022/05/01 02:07:48;;;;;;;12.50;11.17;;;;;;;;;;5043002;28;20525;-74
2022/05/01 02:10:14;;;;;;;13.80;12.40;;;;;;;;;;5048726;28;20503;-74
2022/05/01 02:12:40;;;;;;;18.03;11.70;;;;;;;;;;5048423;28;20529;-76
2022/05/01 02:15:07;;;;;;;15.37;12.97;;;;;;;;;;5049045;28;20483;-74
2022/05/01 02:17:33;;;;;;;13.40;12.13;;;;;;;;;;5046659;28;20434;-74
2022/05/01 02:19:59;;;;;;;12.67;11.43;;;;;;;;;;5047877;28;20433;-74
2022/05/01 02:22:25;;;;;;;13.60;12.10;;;;;;;;;;5046784;28;20821;-75
2022/05/01 02:24:51;;;;;;;14.67;13.00;;;;;;;;;;5048155;28;20473;-74
2022/05/01 02:27:17;;;;;;;12.20;10.70;;;;;;;;;;5046588;28;20446;-75
2022/05/01 02:29:44;;;;;;;13.50;11.43;;;;;;;;;;5046417;28;20438;-75
2022/05/01 02:32:10;;;;;;;15.23;12.13;;;;;;;;;;5048303;28;20430;-75
2022/05/01 02:34:36;;;;;;;13.40;12.00;;;;;;;;;;5048678;28;20788;-74
2022/05/01 02:37:02;;;;;;;13.73;11.63;;;;;;;;;;5043751;28;20789;-74
2022/05/01 02:39:28;;;;;;;14.53;12.27;;;;;;;;;;5047040;28;20939;-75
2022/05/01 02:41:56;;;;;;;13.13;11.20;;;;;;;;;;5047490;28;20497;-75
2022/05/01 02:44:21;;;;;;;12.70;11.50;;;;;;;;;;5048616;28;20477;-74
2022/05/01 02:46:48;;;;;;;13.97;12.63;;;;;;;;;;5044796;28;20438;-74
2022/05/01 02:49:14;;;;;;;12.57;11.33;;;;;;;;;;5048257;28;20433;-74
2022/05/01 02:51:40;;;;;;;13.37;12.07;;;;;;;;;;5046696;28;20814;-74
2022/05/01 02:54:06;;;;;;;13.17;11.77;;;;;;;;;;5048310;28;20423;-74
2022/05/01 02:56:32;;;;;;;10.70;9.57;;;;;;;;;;5044186;28;20944;-74
2022/05/01 02:59:00;;;;;;;13.27;11.83;;;;;;;;;;5046633;28;20425;-74
2022/05/01 03:01:26;;;;;;;12.63;10.73;;;;;;;;;;5045582;28;20431;-74
2022/05/01 03:03:52;;;;;;;12.83;11.50;;;;;;;;;;5048609;28;20430;-74
2022/05/01 03:06:18;;;;;;;14.10;10.83;;;;;;;;;;5046526;28;20569;-75
2022/05/01 03:08:44;;;;;;;12.37;10.97;;;;;;;;;;5043651;28;20472;-74
2022/05/01 03:11:10;;;;;;;12.70;11.40;;;;;;;;;;5040125;28;20936;-75
2022/05/01 03:13:36;;;;;;;14.20;11.73;;;;;;;;;;5044777;28;20911;-75
2022/05/01 03:16:03;;;;;;;17.90;12.17;;;;;;;;;;5046151;28;20449;-76
2022/05/01 03:23:58;;;;;;;14.73;11.03;;;;;;;;;;5047847;28;20440;-75
2022/05/01 03:26:25;;;;;;;15.70;11.93;;;;;;;;;;5049406;28;20478;-75
2022/05/01 03:28:51;;;;;;;14.07;12.07;;;;;;;;;;5047523;28;20445;-75
2022/05/01 03:31:17;;;;;;;13.30;11.90;;;;;;;;;;5046758;28;20433;-75
2022/05/01 03:33:44;;;;;;;16.13;12.97;;;;;;;;;;5048651;28;20434;-76
2022/05/01 03:36:11;;;;;;;12.10;10.80;;;;;;;;;;5050793;28;20431;-74
2022/05/01 03:38:38;;;;;;;11.97;10.77;;;;;;;;;;5050935;28;20464;-75
2022/05/01 03:41:05;;;;;;;14.40;11.50;;;;;;;;;;5048370;28;20431;-74
2022/05/01 03:43:34;;;;;;;11.07;10.00;;;;;;;;;;5050605;28;20492;-74
2022/05/01 03:46:01;;;;;;;10.93;9.90;;;;;;;;;;5049326;28;20905;-73
2022/05/01 03:48:27;;;;;;;18.30;12.47;;;;;;;;;;5052946;28;20516;-74
2022/05/01 03:50:54;;;;;;;13.87;12.17;;;;;;;;;;5050491;28;20543;-74
2022/05/01 03:53:20;;;;;;;16.60;11.50;;;;;;;;;;5049501;28;20935;-76
2022/05/01 03:55:46;;;;;;;11.77;10.70;;;;;;;;;;5050215;28;20957;-75
2022/05/01 03:58:13;;;;;;;14.70;11.87;;;;;;;;;;5051702;28;20430;-75
2022/05/01 04:00:39;;;;;;;15.23;12.40;;;;;;;;;;5051232;28;20434;-74
2022/05/01 04:03:06;;;;;;;10.17;9.40;;;;;;;;;;5049927;28;20460;-75
2022/05/01 04:05:33;;;;;;;11.57;9.57;;;;;;;;;;5051314;28;20607;-75
2022/05/01 04:07:59;;;;;;;9.87;8.87;;;;;;;;;;5048312;28;20465;-75
2022/05/01 04:10:25;;;;;;;16.80;9.03;;;;;;;;;;5049188;28;20519;-75
2022/05/01 04:12:51;;;;;;;8.93;8.33;;;;;;;;;;5049668;28;20434;-78
2022/05/01 04:15:17;;;;;;;9.13;8.33;;;;;;;;;;5051515;28;20868;-78
2022/05/01 04:17:44;;;;;;;9.77;8.90;;;;;;;;;;5050194;28;20432;-76
2022/05/01 04:20:12;;;;;;;8.33;7.60;;;;;;;;;;5049465;28;20438;-76
2022/05/01 04:22:42;;;;;;;9.60;8.83;;;;;;;;;;5045385;28;20486;-75
2022/05/01 04:25:14;;;;;;;9.80;8.80;;;;;;;;;;5051003;28;20467;-75
2022/05/01 04:27:40;;;;;;;8.67;8.03;;;;;;;;;;5049785;28;20430;-74
2022/05/01 04:30:07;;;;;;;12.70;9.07;;;;;;;;;;5049793;28;20530;-74
2022/05/01 04:32:33;;;;;;;16.93;11.17;;;;;;;;;;5048179;28;20450;-74
2022/05/01 04:34:59;;;;;;;11.57;10.43;;;;;;;;;;5050454;28;20439;-74
2022/05/01 04:37:25;;;;;;;11.53;10.33;;;;;;;;;;5046965;28;20500;-74
2022/05/01 04:39:51;;;;;;;10.13;9.23;;;;;;;;;;5047219;28;20422;-74
2022/05/01 04:42:17;;;;;;;11.17;10.17;;;;;;;;;;5048638;28;20533;-74
2022/05/01 04:44:43;;;;;;;9.53;8.73;;;;;;;;;;5048268;28;20536;-75
2022/05/01 04:47:10;;;;;;;10.57;9.57;;;;;;;;;;5048499;28;20941;-75
2022/05/01 04:49:36;;;;;;;10.97;9.97;;;;;;;;;;5048131;28;20532;-75
2022/05/01 04:52:02;;;;;;;10.07;9.07;;;;;;;;;;5051427;28;20934;-76
2022/05/01 04:54:28;;;;;;;12.33;9.23;;;;;;;;;;5048518;28;20518;-78
2022/05/01 04:57:06;;;;;;;8.33;7.70;;;;;;;;;;5048481;28;20418;-77
2022/05/01 04:59:32;;;;;;;10.17;9.20;;;;;;;;;;5049180;28;20431;-78
2022/05/01 05:01:58;;;;;;;8.83;7.97;;;;;;;;;;5047605;28;20427;-77
2022/05/01 05:04:24;;;;;;;7.80;7.30;;;;;;;;;;5048961;28;20508;-78
2022/05/01 05:06:52;;;;;;;9.03;8.23;;;;;;;;;;5050046;28;20446;-78
2022/05/01 05:12:05;;;;;;;8.73;7.87;;;;;;;;;;5048191;28;20441;-76
2022/05/01 05:14:31;;;;;;;8.00;7.40;;;;;;;;;;5049869;28;20775;-76
2022/05/01 05:16:57;;;;;;;7.77;7.13;;;;;;;;;;5047536;28;20430;-76
2022/05/01 05:19:23;;;;;;;8.37;7.57;;;;;;;;;;5046478;28;20434;-75
2022/05/01 05:21:49;;;;;;;6.10;5.80;;;;;;;;;;5040098;28;20448;-75
2022/05/01 05:24:15;;;;;;;5.90;5.50;;;;;;;;;;5047999;28;20509;-76
2022/05/01 05:26:41;;;;;;;5.80;5.50;;;;;;;;;;5048751;28;21187;-75
2022/05/01 05:29:08;;;;;;;5.90;5.60;;;;;;;;;;5047194;28;20422;-75
2022/05/01 05:31:34;;;;;;;6.13;5.73;;;;;;;;;;5048993;28;20647;-75
2022/05/01 05:34:00;;;;;;;6.70;5.57;;;;;;;;;;5044826;28;20430;-74
2022/05/01 05:36:26;;;;;;;6.67;6.07;;;;;;;;;;5048865;28;20435;-76
2022/05/01 05:38:52;;;;;;;6.50;6.10;;;;;;;;;;5049439;28;20438;-76
2022/05/01 05:41:19;;;;;;;8.87;6.90;;;;;;;;;;5048742;28;20966;-75
2022/05/01 05:43:45;;;;;;;6.87;6.10;;;;;;;;;;5044038;28;20437;-75
2022/05/01 05:46:10;;;;;;;7.37;6.70;;;;;;;;;;5048702;28;20485;-79
2022/05/01 05:48:37;;;;;;;7.30;6.70;;;;;;;;;;5049147;28;20849;-79
2022/05/01 05:51:04;;;;;;;6.70;6.30;;;;;;;;;;5048251;28;20485;-78
2022/05/01 05:53:30;;;;;;;7.43;6.80;;;;;;;;;;5047807;28;20800;-79
2022/05/01 05:55:56;;;;;;;8.17;7.47;;;;;;;;;;5043874;28;20469;-78
2022/05/01 05:58:22;;;;;;;6.87;6.37;;;;;;;;;;5046497;28;20469;-77
2022/05/01 06:00:48;;;;;;;5.80;5.40;;;;;;;;;;5043563;28;20600;-77
2022/05/01 06:03:14;;;;;;;7.37;6.50;;;;;;;;;;5047171;28;20464;-77
2022/05/01 06:05:40;;;;;;;6.93;6.47;;;;;;;;;;5045632;28;20669;-76
2022/05/01 06:08:06;;;;;;;7.87;7.23;;;;;;;;;;5041676;28;20666;-76
2022/05/01 06:10:32;;;;;;;8.93;5.97;;;;;;;;;;5045838;28;20469;-76
2022/05/01 06:12:58;;;;;;;7.03;6.33;;;;;;;;;;5046370;28;20473;-76
2022/05/01 06:15:24;;;;;;;8.67;7.83;;;;;;;;;;5047774;28;20488;-76
2022/05/01 06:17:51;;;;;;;9.07;8.03;;;;;;;;;;5047009;28;20430;-75
2022/05/01 06:20:17;;;;;;;7.47;6.83;;;;;;;;;;5048662;28;20441;-75
2022/05/01 06:22:43;;;;;;;7.90;7.10;;;;;;;;;;5048162;28;20426;-75
2022/05/01 06:25:09;;;;;;;6.60;6.20;;;;;;;;;;5040425;28;20517;-78
2022/05/01 06:27:35;;;;;;;12.87;6.77;;;;;;;;;;5040972;28;20453;-74
2022/05/01 06:30:01;;;;;;;7.23;6.53;;;;;;;;;;5047692;28;20427;-78
2022/05/01 06:32:27;;;;;;;5.93;5.63;;;;;;;;;;5045740;28;20464;-76
2022/05/01 06:34:53;;;;;;;7.53;7.03;;;;;;;;;;5046228;28;21022;-77
2022/05/01 06:37:19;;;;;;;8.20;7.50;;;;;;;;;;5046785;28;20465;-79
2022/05/01 06:39:45;;;;;;;7.73;7.13;;;;;;;;;;5044935;28;20926;-80
2022/05/01 06:42:12;;;;;;;7.60;6.90;;;;;;;;;;5044061;28;20458;-77
2022/05/01 06:44:38;;;;;;;8.60;6.70;;;;;;;;;;5046234;28;20470;-70
2022/05/01 06:47:05;;;;;;;7.30;6.70;;;;;;;;;;5048475;28;20441;-76
2022/05/01 06:49:31;;;;;;;7.37;6.87;;;;;;;;;;5045537;28;20434;-76
2022/05/01 06:51:57;;;;;;;8.43;7.83;;;;;;;;;;5040936;28;21006;-75
2022/05/01 06:54:23;;;;;;;10.30;6.20;;;;;;;;;;5046318;28;20450;-75
2022/05/01 06:56:49;;;;;;;11.47;7.20;;;;;;;;;;5044184;28;20426;-74
2022/05/01 06:59:16;;;;;;;7.60;6.87;;;;;;;;;;5049172;28;20430;-74
2022/05/01 07:01:42;;;;;;;7.63;6.93;;;;;;;;;;5046156;28;20442;-74
2022/05/01 07:04:08;;;;;;;6.50;6.00;;;;;;;;;;5049054;28;20931;-76
2022/05/01 07:06:34;;;;;;;7.20;6.60;;;;;;;;;;5047986;28;20485;-75
2022/05/01 07:09:00;;;;;;;8.30;7.60;;;;;;;;;;5045911;28;20524;-75
2022/05/01 07:11:26;;;;;;;7.80;7.23;;;;;;;;;;5044463;28;20452;-74
2022/05/01 07:13:52;;;;;;;7.37;6.30;;;;;;;;;;5047671;28;20495;-74
2022/05/01 07:16:20;;;;;;;7.00;6.03;;;;;;;;;;5042374;28;20935;-75
2022/05/01 07:18:46;;;;;;;6.50;6.20;;;;;;;;;;5047868;28;20445;-75
2022/05/01 07:21:12;;;;;;;7.43;6.73;;;;;;;;;;5047307;28;20446;-74
2022/05/01 07:23:38;;;;;;;7.53;7.00;;;;;;;;;;5048830;28;20440;-74
2022/05/01 07:26:04;;;;;;;9.60;7.00;;;;;;;;;;5045439;28;20495;-74
2022/05/01 07:28:32;;;;;;;8.03;7.43;;;;;;;;;;5045820;28;20427;-74
2022/05/01 07:30:59;;;;;;;8.57;7.77;;;;;;;;;;5048412;28;20442;-74
2022/05/01 07:33:25;;;;;;;10.97;9.03;;;;;;;;;;5048874;28;20446;-74
2022/05/01 07:35:51;;;;;;;10.20;9.00;;;;;;;;;;5048581;28;20799;-76
2022/05/01 07:38:17;;;;;;;9.80;9.00;;;;;;;;;;5047228;28;20865;-75
2022/05/01 07:40:43;;;;;;;13.40;9.33;;;;;;;;;;5047597;28;20446;-75
2022/05/01 07:43:10;;;;;;;8.67;7.70;;;;;;;;;;5045484;28;20481;-78
2022/05/01 07:45:36;;;;;;;9.30;8.47;;;;;;;;;;5046991;28;20552;-76
2022/05/01 07:48:02;;;;;;;19.40;9.07;;;;;;;;;;5041892;28;20480;-75
2022/05/01 07:50:28;;;;;;;12.10;9.20;;;;;;;;;;5046319;28;20516;-76
2022/05/01 07:52:55;;;;;;;12.40;10.90;;;;;;;;;;5048006;28;20449;-76
2022/05/01 07:55:21;;;;;;;13.20;11.73;;;;;;;;;;5048310;28;20415;-73
2022/05/01 07:57:47;;;;;;;11.70;9.97;;;;;;;;;;5044327;28;20495;-75
2022/05/01 08:00:13;;;;;;;18.10;10.60;;;;;;;;;;5046365;28;20839;-76
2022/05/01 08:05:24;;;;;;;14.97;10.63;;;;;;;;;;5047422;28;20531;-74
2022/05/01 08:07:51;;;;;;;12.00;9.80;;;;;;;;;;5048898;28;20935;-76
2022/05/01 08:10:17;;;;;;;31.03;11.27;;;;;;;;;;5051866;28;20422;-74
2022/05/01 08:12:43;;;;;;;16.23;10.77;;;;;;;;;;5048533;28;20484;-77
2022/05/01 08:15:09;;;;;;;16.70;12.00;;;;;;;;;;5049585;28;20438;-76
2022/05/01 08:17:35;;;;;;;18.70;11.77;;;;;;;;;;5051874;28;20433;-74
2022/05/01 08:22:46;;;;;;;17.87;12.07;;;;;;;;;;5052755;28;20486;-74
2022/05/01 08:25:12;;;;;;;20.07;10.80;;;;;;;;;;5046562;28;20489;-73
2022/05/01 08:27:41;;;;;;;16.33;11.03;;;;;;;;;;5051369;28;20426;-74
2022/05/01 08:30:07;;;;;;;18.33;11.90;;;;;;;;;;5048275;28;20422;-74
2022/05/01 08:32:33;;;;;;;22.93;13.60;;;;;;;;;;5051994;28;20903;-76
2022/05/01 08:34:59;;;;;;;19.60;13.70;;;;;;;;;;5042766;28;20497;-78
2022/05/01 08:37:25;;;;;;;20.23;13.17;;;;;;;;;;5050246;28;20812;-74
2022/05/01 08:39:51;;;;;;;19.83;12.07;;;;;;;;;;5048925;28;20473;-76
2022/05/01 08:42:17;;;;;;;19.33;12.80;;;;;;;;;;5051127;28;20426;-76
2022/05/01 08:44:43;;;;;;;16.90;11.60;;;;;;;;;;5047452;28;20934;-77
2022/05/01 08:47:16;;;;;;;18.77;11.30;;;;;;;;;;5050461;28;20442;-76
2022/05/01 08:49:43;;;;;;;18.47;12.23;;;;;;;;;;5049392;28;20881;-78
2022/05/01 08:52:09;;;;;;;15.20;11.33;;;;;;;;;;5051236;28;20422;-75
2022/05/01 08:54:36;;;;;;;16.47;10.80;;;;;;;;;;5048245;28;20426;-74
2022/05/01 08:57:02;;;;;;;16.70;10.97;;;;;;;;;;5050912;28;20452;-74
2022/05/01 08:59:29;;;;;;;15.70;12.03;;;;;;;;;;5046709;28;20437;-77
2022/05/01 09:01:56;;;;;;;20.00;11.73;;;;;;;;;;5049353;28;20446;-77
2022/05/01 09:04:24;;;;;;;16.07;10.90;;;;;;;;;;5051044;28;20445;-77
2022/05/01 09:06:50;;;;;;;19.43;12.00;;;;;;;;;;5049837;28;20846;-77
2022/05/01 09:09:17;;;;;;;14.83;11.77;;;;;;;;;;5048781;28;21176;-76
2022/05/01 09:14:28;;;;;;;20.73;12.60;;;;;;;;;;5050679;28;20464;-75
2022/05/01 09:17:13;;;;;;;20.33;11.57;;;;;;;;;;5046827;28;20442;-75
2022/05/01 09:19:40;;;;;;;14.63;11.80;;;;;;;;;;5050423;28;20414;-78
2022/05/01 09:22:06;;;;;;;18.23;10.80;;;;;;;;;;5049096;28;20939;-75
2022/05/01 09:24:32;;;;;;;16.17;11.40;;;;;;;;;;5047202;28;20446;-78
2022/05/01 09:26:59;;;;;;;12.57;11.10;;;;;;;;;;5047933;28;20474;-76
2022/05/01 09:29:26;;;;;;;16.57;11.57;;;;;;;;;;5049820;28;20495;-76
2022/05/01 09:31:53;;;;;;;16.77;11.53;;;;;;;;;;5049360;28;20665;-77
2022/05/01 09:34:29;;;;;;;10.43;9.37;;;;;;;;;;5050872;28;20417;-77
2022/05/01 09:36:59;;;;;;;11.50;10.50;;;;;;;;;;5046613;28;20503;-77
2022/05/01 09:39:27;;;;;;;12.87;10.33;;;;;;;;;;5044726;28;20952;-79
2022/05/01 09:41:53;;;;;;;12.90;11.47;;;;;;;;;;5047332;28;20430;-78
2022/05/01 09:44:20;;;;;;;13.50;9.43;;;;;;;;;;5047559;28;20438;-78
2022/05/01 09:46:48;;;;;;;16.97;11.50;;;;;;;;;;5046904;28;20446;-77
2022/05/01 09:49:15;;;;;;;17.40;11.77;;;;;;;;;;5045742;28;20449;-74
2022/05/01 09:51:43;;;;;;;15.60;11.73;;;;;;;;;;5049226;28;20429;-78
2022/05/01 09:54:17;;;;;;;17.80;11.67;;;;;;;;;;5046679;28;20940;-78
2022/05/01 09:56:47;;;;;;;20.50;12.07;;;;;;;;;;5047875;28;20418;-76
2022/05/01 09:59:14;;;;;;;14.53;10.80;;;;;;;;;;5045804;28;20891;-79
2022/05/01 10:01:40;;;;;;;18.10;11.50;;;;;;;;;;5045862;28;20437;-74
2022/05/01 10:04:06;;;;;;;10.27;9.27;;;;;;;;;;5044109;28;20419;-83
2022/05/01 10:06:33;;;;;;;11.93;10.50;;;;;;;;;;5045164;28;20478;-75
2022/05/01 10:09:01;;;;;;;20.57;11.43;;;;;;;;;;5049262;28;20425;-75
2022/05/01 10:11:28;;;;;;;14.03;10.67;;;;;;;;;;5048617;28;20483;-74
2022/05/01 10:13:56;;;;;;;15.93;10.00;;;;;;;;;;5043561;28;20487;-75
2022/05/01 10:16:22;;;;;;;13.87;9.70;;;;;;;;;;5048366;28;20423;-75
2022/05/01 10:18:48;;;;;;;11.10;9.03;;;;;;;;;;5047755;28;20426;-79
2022/05/01 10:21:14;;;;;;;13.80;10.80;;;;;;;;;;5049016;28;20445;-77
2022/05/01 10:23:40;;;;;;;13.70;10.27;;;;;;;;;;5049627;28;20426;-76
2022/05/01 10:26:17;;;;;;;14.77;10.93;;;;;;;;;;5047332;28;20482;-77
2022/05/01 10:28:43;;;;;;;21.20;12.27;;;;;;;;;;5044439;28;20429;-77
2022/05/01 10:34:15;;;;;;;20.33;10.80;;;;;;;;;;5049968;28;20418;-78
2022/05/01 10:37:00;;;;;;;11.77;10.57;;;;;;;;;;5047158;28;20428;-75
2022/05/01 10:39:29;;;;;;;12.83;10.63;;;;;;;;;;5046928;28;20564;-74
2022/05/01 10:41:56;;;;;;;16.80;10.33;;;;;;;;;;5049140;28;20838;-75
2022/05/01 10:44:26;;;;;;;14.50;9.37;;;;;;;;;;5048361;28;20453;-78
2022/05/01 10:46:54;;;;;;;13.63;11.00;;;;;;;;;;5047697;28;20442;-78
2022/05/01 10:49:33;;;;;;;14.43;9.17;;;;;;;;;;5049577;28;20430;-78
2022/05/01 10:52:13;;;;;;;12.80;10.00;;;;;;;;;;5046108;28;20537;-78
2022/05/01 10:54:39;;;;;;;20.07;11.60;;;;;;;;;;5049622;28;20480;-77
2022/05/01 10:57:06;;;;;;;17.87;9.80;;;;;;;;;;5043383;28;21224;-75
2022/05/01 10:59:36;;;;;;;9.73;8.83;;;;;;;;;;5046030;28;20437;-80
2022/05/01 11:02:19;;;;;;;13.50;9.20;;;;;;;;;;5045374;28;20974;-76
2022/05/01 11:04:46;;;;;;;12.00;9.77;;;;;;;;;;5049150;28;20497;-77
2022/05/01 11:07:17;;;;;;;19.57;10.00;;;;;;;;;;5045326;28;20442;-78
2022/05/01 11:09:47;;;;;;;15.40;9.00;;;;;;;;;;5043873;28;20423;-75
2022/05/01 11:12:14;;;;;;;12.10;8.47;;;;;;;;;;5047373;28;20426;-79
2022/05/01 11:14:54;;;;;;;9.50;8.60;;;;;;;;;;5043040;28;20431;-77
2022/05/01 11:17:44;;;;;;;10.77;9.03;;;;;;;;;;5043194;28;20481;-79
2022/05/01 11:20:19;;;;;;;11.07;8.30;;;;;;;;;;5043787;28;20445;-74
2022/05/01 11:22:46;;;;;;;13.20;10.00;;;;;;;;;;5048875;28;20821;-77
2022/05/01 11:25:17;;;;;;;8.70;7.13;;;;;;;;;;5046155;28;20605;-76
2022/05/01 11:27:48;;;;;;;10.33;8.73;;;;;;;;;;5045292;28;20449;-75
2022/05/01 11:30:22;;;;;;;10.80;8.80;;;;;;;;;;5048820;28;20462;-76
2022/05/01 11:32:51;;;;;;;10.63;8.80;;;;;;;;;;5045638;28;20437;-73
2022/05/01 11:35:19;;;;;;;14.37;8.37;;;;;;;;;;5048951;28;20439;-79
2022/05/01 11:37:48;;;;;;;11.73;8.67;;;;;;;;;;5045009;28;20517;-77
2022/05/01 11:40:23;;;;;;;14.07;9.93;;;;;;;;;;5045075;28;20532;-77
2022/05/01 11:42:49;;;;;;;13.93;10.13;;;;;;;;;;5047072;28;20823;-79
2022/05/01 11:45:18;;;;;;;9.03;8.10;;;;;;;;;;5045692;28;20481;-77
2022/05/01 11:47:47;;;;;;;9.40;8.50;;;;;;;;;;5046297;28;20422;-79
2022/05/01 11:50:17;;;;;;;16.20;8.40;;;;;;;;;;5049098;28;20562;-78
2022/05/01 11:52:45;;;;;;;9.00;7.40;;;;;;;;;;5045387;28;20445;-79
2022/05/01 11:55:12;;;;;;;6.40;5.90;;;;;;;;;;5049225;28;20770;-77
2022/05/01 12:03:12;;;;;;;11.50;8.70;;;;;;;;;;5048789;28;20471;-78
2022/05/01 12:05:43;;;;;;;12.10;9.20;;;;;;;;;;5046801;28;20517;-79
2022/05/01 12:08:10;;;;;;;10.57;8.00;;;;;;;;;;5045999;28;20450;-79
2022/05/01 12:10:40;;;;;;;11.93;10.70;;;;;;;;;;5043949;28;20430;-77
2022/05/01 12:13:16;;;;;;;7.80;7.10;;;;;;;;;;5043694;28;20447;-78
2022/05/01 12:15:43;;;;;;;7.77;7.03;;;;;;;;;;5045848;28;20434;-77
2022/05/01 12:18:09;;;;;;;8.00;7.13;;;;;;;;;;5049185;28;20429;-78
2022/05/01 12:20:35;;;;;;;9.50;8.60;;;;;;;;;;5048234;28;20466;-73
2022/05/01 12:23:01;;;;;;;9.37;7.00;;;;;;;;;;5045203;28;20427;-76
2022/05/01 12:25:27;;;;;;;7.27;6.77;;;;;;;;;;5049998;28;20478;-78
2022/05/01 12:27:54;;;;;;;8.13;7.30;;;;;;;;;;5047720;28;20492;-78
2022/05/01 12:30:22;;;;;;;8.37;7.57;;;;;;;;;;5050604;28;20430;-79
2022/05/01 12:32:55;;;;;;;9.93;8.10;;;;;;;;;;5048550;28;20443;-79
2022/05/01 12:35:21;;;;;;;9.13;7.70;;;;;;;;;;5050200;28;20740;-79
2022/05/01 12:37:49;;;;;;;9.40;8.50;;;;;;;;;;5047471;28;20452;-79
2022/05/01 12:43:50;;;;;;;9.40;8.50;;;;;;;;;;5050433;28;20464;-78
2022/05/01 12:45:53;;;;;;;7.60;6.20;;;;;;;;;;5048654;28;20524;-78
2022/05/01 12:48:20;;;;;;;9.07;6.30;;;;;;;;;;5047116;28;20433;-77
2022/05/01 12:50:50;;;;;;;7.80;7.10;;;;;;;;;;5048202;28;20893;-79
2022/05/01 12:53:27;;;;;;;9.60;7.10;;;;;;;;;;5047160;28;20422;-79
2022/05/01 12:55:53;;;;;;;6.43;5.83;;;;;;;;;;5050379;28;20503;-79
2022/05/01 12:58:30;;;;;;;6.93;6.40;;;;;;;;;;5047278;28;20434;-78
2022/05/01 13:00:56;;;;;;;6.63;6.03;;;;;;;;;;5045973;28;20444;-79
2022/05/01 13:03:25;;;;;;;9.50;7.10;;;;;;;;;;5048189;28;20426;-77
2022/05/01 13:06:05;;;;;;;13.00;6.70;;;;;;;;;;5047236;28;20482;-77
2022/05/01 13:08:32;;;;;;;7.90;6.63;;;;;;;;;;5049092;28;20430;-74
2022/05/01 13:11:17;;;;;;;7.37;6.60;;;;;;;;;;5048625;28;21006;-78
2022/05/01 13:14:01;;;;;;;4.73;4.53;;;;;;;;;;5049538;28;20450;-76
2022/05/01 13:16:30;;;;;;;7.80;5.60;;;;;;;;;;5049748;28;20430;-78
2022/05/01 13:18:57;;;;;;;8.13;6.50;;;;;;;;;;5050001;28;20434;-78
2022/05/01 13:21:25;;;;;;;7.97;7.17;;;;;;;;;;5050577;28;20436;-78
2022/05/01 13:23:52;;;;;;;7.43;6.37;;;;;;;;;;5050871;28;20445;-79
2022/05/01 13:26:19;;;;;;;9.27;8.30;;;;;;;;;;5047148;28;20482;-79
2022/05/01 13:28:45;;;;;;;8.47;7.67;;;;;;;;;;5050930;28;20992;-79
2022/05/01 13:31:13;;;;;;;10.80;6.87;;;;;;;;;;5050780;28;20418;-80
2022/05/01 13:33:39;;;;;;;7.73;7.00;;;;;;;;;;5050179;28;20448;-79
2022/05/01 13:36:06;;;;;;;6.00;5.60;;;;;;;;;;5050381;28;20533;-76
2022/05/01 13:38:32;;;;;;;8.13;7.00;;;;;;;;;;5047536;28;20515;-77
2022/05/01 13:46:27;;;;;;;7.73;6.30;;;;;;;;;;5046747;28;20481;-77
2022/05/01 13:48:54;;;;;;;7.10;6.43;;;;;;;;;;5046301;28;20418;-79
2022/05/01 13:51:21;;;;;;;6.00;5.50;;;;;;;;;;5048701;28;20508;-78
2022/05/01 13:53:48;;;;;;;6.70;6.27;;;;;;;;;;5049735;28;20418;-79
2022/05/01 13:56:15;;;;;;;10.17;7.53;;;;;;;;;;5045979;28;20431;-77
2022/05/01 13:58:42;;;;;;;7.50;6.80;;;;;;;;;;5048002;28;20958;-80
2022/05/01 14:01:08;;;;;;;8.77;6.23;;;;;;;;;;5049640;28;20423;-78
2022/05/01 14:03:34;;;;;;;5.47;5.17;;;;;;;;;;5049390;28;20422;-75
2022/05/01 14:06:00;;;;;;;6.47;6.03;;;;;;;;;;5048238;28;20580;-74
2022/05/01 14:08:26;;;;;;;7.23;6.50;;;;;;;;;;5048267;28;20506;-77
2022/05/01 14:10:52;;;;;;;7.00;6.40;;;;;;;;;;5048237;28;20533;-76
2022/05/01 14:13:18;;;;;;;6.53;6.03;;;;;;;;;;5049153;28;20426;-78
2022/05/01 14:15:44;;;;;;;7.83;6.40;;;;;;;;;;5050122;28;20433;-79
2022/05/01 14:18:11;;;;;;;10.73;6.60;;;;;;;;;;5046777;28;20438;-78
2022/05/01 14:20:37;;;;;;;5.23;4.97;;;;;;;;;;5049503;28;20464;-78
2022/05/01 14:23:05;;;;;;;7.40;6.57;;;;;;;;;;5045790;28;20430;-78
2022/05/01 14:25:31;;;;;;;7.70;6.97;;;;;;;;;;5049177;28;20469;-76
2022/05/01 14:27:57;;;;;;;6.30;5.80;;;;;;;;;;5047113;28;20434;-76
2022/05/01 14:30:23;;;;;;;9.00;5.97;;;;;;;;;;5042788;28;20430;-77
2022/05/01 14:32:53;;;;;;;7.27;6.67;;;;;;;;;;5049285;28;20456;-76
2022/05/01 14:35:24;;;;;;;5.93;5.53;;;;;;;;;;5049647;28;20411;-79
2022/05/01 14:37:57;;;;;;;7.03;6.17;;;;;;;;;;5048794;28;20470;-79
2022/05/01 14:40:27;;;;;;;5.37;5.00;;;;;;;;;;5048050;28;20433;-75
2022/05/01 14:42:54;;;;;;;5.57;5.20;;;;;;;;;;5049195;28;20446;-77
2022/05/01 14:45:26;;;;;;;6.77;6.17;;;;;;;;;;5049498;28;21091;-79
2022/05/01 14:48:06;;;;;;;5.00;4.40;;;;;;;;;;5048221;28;20442;-79
2022/05/01 14:50:32;;;;;;;5.63;5.13;;;;;;;;;;5044089;28;20501;-78
2022/05/01 14:52:58;;;;;;;4.87;4.57;;;;;;;;;;5049300;28;21047;-74
2022/05/01 14:55:25;;;;;;;5.03;4.73;;;;;;;;;;5049019;28;20480;-75
2022/05/01 14:57:55;;;;;;;12.30;5.93;;;;;;;;;;5049054;28;20426;-77
2022/05/01 15:08:42;;;;;;;6.33;5.43;;;;;;;;;;5049207;28;20414;-78
2022/05/01 15:11:08;;;;;;;4.80;4.60;;;;;;;;;;5045492;28;20470;-76
2022/05/01 15:13:34;;;;;;;4.50;4.30;;;;;;;;;;5049395;28;20413;-76
2022/05/01 15:16:05;;;;;;;4.60;4.40;;;;;;;;;;5049955;28;20438;-77
2022/05/01 15:18:46;;;;;;;4.67;4.23;;;;;;;;;;5051993;28;20434;-78